sensor_id;sensor_type;location;lat;lon;timestamp;pressure;altitude;pressure_sealevel;temperature;humidity
39265;BME280;42646;51.910;7.724;2023-02-19T00:01:46;100945.84;;;9.95;100.00
39265;BME280;42646;51.910;7.724;2023-02-19T00:04:18;100947.44;;;9.98;100.00
39265;BME280;42646;51.910;7.724;2023-02-19T00:06:48;100945.59;;;9.98;100.00
39265;BME280;42646;51.910;7.724;2023-02-19T00:09:17;100940.16;;;10.00;100.00
39265;BME280;42646;51.910;7.724;2023-02-19T00:11:49;100941.84;;;10.01;100.00
39265;BME280;42646;51.910;7.724;2023-02-19T00:14:19;100940.16;;;10.00;100.00
39265;BME280;42646;51.910;7.724;2023-02-19T00:16:47;100934.84;;;10.00;100.00
39265;BME280;42646;51.910;7.724;2023-02-19T00:19:17;100935.31;;;10.05;100.00
39265;BME280;42646;51.910;7.724;2023-02-19T00:21:45;100929.72;;;10.08;100.00
39265;BME280;42646;51.910;7.724;2023-02-19T00:24:14;100929.16;;;10.04;100.00
39265;BME280;42646;51.910;7.724;2023-02-19T00:26:42;100937.97;;;10.05;100.00
39265;BME280;42646;51.910;7.724;2023-02-19T00:29:14;100929.00;;;10.06;100.00
39265;BME280;42646;51.910;7.724;2023-02-19T00:31:43;100921.88;;;10.06;100.00
39265;BME280;42646;51.910;7.724;2023-02-19T00:34:12;100920.53;;;10.12;100.00
39265;BME280;42646;51.910;7.724;2023-02-19T00:36:41;100930.31;;;10.11;100.00
39265;BME280;42646;51.910;7.724;2023-02-19T00:39:12;100917.88;;;10.12;100.00
39265;BME280;42646;51.910;7.724;2023-02-19T00:41:41;100922.81;;;10.16;100.00
39265;BME280;42646;51.910;7.724;2023-02-19T00:44:09;100916.19;;;10.11;100.00
39265;BME280;42646;51.910;7.724;2023-02-19T00:46:41;100927.53;;;10.13;100.00
39265;BME280;42646;51.910;7.724;2023-02-19T00:49:14;100917.88;;;10.12;100.00
39265;BME280;42646;51.910;7.724;2023-02-19T00:51:42;100922.34;;;10.11;100.00
39265;BME280;42646;51.910;7.724;2023-02-19T00:54:11;100927.53;;;10.13;100.00
39265;BME280;42646;51.910;7.724;2023-02-19T00:56:39;100934.56;;;10.14;100.00
39265;BME280;42646;51.910;7.724;2023-02-19T00:59:08;100926.34;;;10.06;100.00
39265;BME280;42646;51.910;7.724;2023-02-19T01:01:36;100931.03;;;10.13;100.00
39265;BME280;42646;51.910;7.724;2023-02-19T01:04:06;100932.84;;;10.13;100.00
39265;BME280;42646;51.910;7.724;2023-02-19T01:06:57;100926.69;;;10.12;100.00
39265;BME280;42646;51.910;7.724;2023-02-19T01:09:26;100924.88;;;10.13;100.00
39265;BME280;42646;51.910;7.724;2023-02-19T01:11:54;100931.03;;;10.13;100.00
39265;BME280;42646;51.910;7.724;2023-02-19T01:14:25;100930.91;;;10.15;100.00
39265;BME280;42646;51.910;7.724;2023-02-19T01:16:55;100932.84;;;10.13;100.00
39265;BME280;42646;51.910;7.724;2023-02-19T01:19:25;100927.53;;;10.13;100.00
39265;BME280;42646;51.910;7.724;2023-02-19T01:21:52;100923.66;;;10.17;100.00
39265;BME280;42646;51.910;7.724;2023-02-19T01:24:21;100927.41;;;10.14;100.00
39265;BME280;42646;51.910;7.724;2023-02-19T01:26:48;100924.03;;;10.12;100.00
39265;BME280;42646;51.910;7.724;2023-02-19T01:29:16;100929.25;;;10.14;100.00
39265;BME280;42646;51.910;7.724;2023-02-19T01:31:44;100930.66;;;10.18;100.00
39265;BME280;42646;51.910;7.724;2023-02-19T01:34:13;100922.81;;;10.16;100.00
39265;BME280;42646;51.910;7.724;2023-02-19T01:36:42;100921.25;;;10.14;100.00
39265;BME280;42646;51.910;7.724;2023-02-19T01:39:10;100931.91;;;10.14;100.00
39265;BME280;42646;51.910;7.724;2023-02-19T01:41:39;100922.66;;;10.18;100.00
39265;BME280;42646;51.910;7.724;2023-02-19T01:47:16;100930.50;;;10.20;100.00
39265;BME280;42646;51.910;7.724;2023-02-19T01:49:48;100930.19;;;10.13;100.00
39265;BME280;42646;51.910;7.724;2023-02-19T01:52:22;100922.34;;;10.11;100.00
39265;BME280;42646;51.910;7.724;2023-02-19T01:54:53;100924.16;;;10.11;100.00
39265;BME280;42646;51.910;7.724;2023-02-19T01:57:32;100923.31;;;10.10;100.00
39265;BME280;42646;51.910;7.724;2023-02-19T02:00:02;100917.53;;;10.05;100.00
39265;BME280;42646;51.910;7.724;2023-02-19T02:02:38;100923.56;;;10.07;100.00
39265;BME280;42646;51.910;7.724;2023-02-19T02:05:09;100921.19;;;10.04;100.00
39265;BME280;42646;51.910;7.724;2023-02-19T02:07:43;100931.94;;;10.03;100.00
39265;BME280;42646;51.910;7.724;2023-02-19T02:10:28;100927.19;;;10.06;100.00
39265;BME280;42646;51.910;7.724;2023-02-19T02:12:57;100926.63;;;10.03;100.00
39265;BME280;42646;51.910;7.724;2023-02-19T02:15:28;100926.63;;;10.03;100.00
39265;BME280;42646;51.910;7.724;2023-02-19T02:18:05;100929.84;;;10.06;100.00
39265;BME280;42646;51.910;7.724;2023-02-19T02:20:50;100929.28;;;10.03;100.00
39265;BME280;42646;51.910;7.724;2023-02-19T02:23:28;100921.41;;;10.01;100.00
39265;BME280;42646;51.910;7.724;2023-02-19T02:26:08;100930.97;;;10.04;100.00
39265;BME280;42646;51.910;7.724;2023-02-19T02:29:08;100928.81;;;9.98;100.00
39265;BME280;42646;51.910;7.724;2023-02-19T02:31:48;100929.66;;;9.98;100.00
39265;BME280;42646;51.910;7.724;2023-02-19T02:34:23;100931.22;;;10.01;100.00
39265;BME280;42646;51.910;7.724;2023-02-19T02:36:54;100925.31;;;9.97;100.00
39265;BME280;42646;51.910;7.724;2023-02-19T02:39:27;100922.66;;;9.97;100.00
39265;BME280;42646;51.910;7.724;2023-02-19T02:46:10;100919.53;;;9.92;100.00
39265;BME280;42646;51.910;7.724;2023-02-19T02:48:42;100922.06;;;9.94;100.00
39265;BME280;42646;51.910;7.724;2023-02-19T02:51:15;100914.78;;;9.96;100.00
39265;BME280;42646;51.910;7.724;2023-02-19T02:54:07;100934.50;;;9.93;100.00
39265;BME280;42646;51.910;7.724;2023-02-19T02:57:20;100928.09;;;9.96;100.00
39265;BME280;42646;51.910;7.724;2023-02-19T02:59:54;100927.13;;;9.97;100.00
39265;BME280;42646;51.910;7.724;2023-02-19T03:02:27;100925.44;;;9.96;100.00
39265;BME280;42646;51.910;7.724;2023-02-19T03:05:25;100923.19;;;9.91;100.00
39265;BME280;42646;51.910;7.724;2023-02-19T03:08:14;100921.59;;;9.88;100.00
39265;BME280;42646;51.910;7.724;2023-02-19T03:10:50;100923.56;;;9.86;100.00
39265;BME280;42646;51.910;7.724;2023-02-19T03:13:24;100920.06;;;9.86;100.00
39265;BME280;42646;51.910;7.724;2023-02-19T03:16:15;100922.06;;;9.94;100.00
39265;BME280;42646;51.910;7.724;2023-02-19T03:19:03;100933.47;;;9.84;100.00
39265;BME280;42646;51.910;7.724;2023-02-19T03:21:54;100936.38;;;9.81;100.00
39265;BME280;42646;51.910;7.724;2023-02-19T03:24:27;100940.13;;;9.79;100.00
39265;BME280;42646;51.910;7.724;2023-02-19T03:27:15;100951.00;;;9.76;100.00
39265;BME280;42646;51.910;7.724;2023-02-19T03:29:50;100953.41;;;9.79;100.00
39265;BME280;42646;51.910;7.724;2023-02-19T03:32:24;100955.94;;;9.80;100.00
39265;BME280;42646;51.910;7.724;2023-02-19T03:34:59;100956.59;;;9.73;100.00
39265;BME280;42646;51.910;7.724;2023-02-19T03:37:37;100953.06;;;9.72;100.00
39265;BME280;42646;51.910;7.724;2023-02-19T03:40:08;100956.31;;;9.76;100.00
39265;BME280;42646;51.910;7.724;2023-02-19T03:42:42;100960.09;;;9.73;100.00
39265;BME280;42646;51.910;7.724;2023-02-19T03:45:24;100962.84;;;9.72;100.00
39265;BME280;42646;51.910;7.724;2023-02-19T03:48:05;100967.56;;;9.68;100.00
39265;BME280;42646;51.910;7.724;2023-02-19T03:50:39;100959.59;;;9.68;100.00
39265;BME280;42646;51.910;7.724;2023-02-19T03:53:21;100971.06;;;9.69;100.00
39265;BME280;42646;51.910;7.724;2023-02-19T03:56:01;100972.88;;;9.68;100.00
39265;BME280;42646;51.910;7.724;2023-02-19T03:58:39;100986.19;;;9.68;100.00
39265;BME280;42646;51.910;7.724;2023-02-19T04:01:15;100976.38;;;9.69;100.00
39265;BME280;42646;51.910;7.724;2023-02-19T04:03:48;100970.47;;;9.65;100.00
39265;BME280;42646;51.910;7.724;2023-02-19T04:06:21;100984.00;;;9.62;100.00
39265;BME280;42646;51.910;7.724;2023-02-19T04:08:57;100977.03;;;9.61;100.00
39265;BME280;42646;51.910;7.724;2023-02-19T04:11:28;100985.69;;;9.63;100.00
39265;BME280;42646;51.910;7.724;2023-02-19T04:14:04;100985.22;;;9.58;100.00
39265;BME280;42646;51.910;7.724;2023-02-19T04:16:34;100992.34;;;9.57;100.00
39265;BME280;42646;51.910;7.724;2023-02-19T04:19:07;100999.34;;;9.58;100.00
39265;BME280;42646;51.910;7.724;2023-02-19T04:21:39;101002.13;;;9.57;100.00
39265;BME280;42646;51.910;7.724;2023-02-19T04:24:13;101002.97;;;9.57;100.00
39265;BME280;42646;51.910;7.724;2023-02-19T04:26:41;101012.63;;;9.58;100.00
39265;BME280;42646;51.910;7.724;2023-02-19T04:29:11;101004.91;;;9.55;100.00
39265;BME280;42646;51.910;7.724;2023-02-19T04:31:38;101019.28;;;9.53;100.00
39265;BME280;42646;51.910;7.724;2023-02-19T04:34:08;101016.75;;;9.51;100.00
39265;BME280;42646;51.910;7.724;2023-02-19T04:36:36;101022.28;;;9.48;100.00
39265;BME280;42646;51.910;7.724;2023-02-19T04:39:05;101026.88;;;9.46;100.00
39265;BME280;42646;51.910;7.724;2023-02-19T04:41:35;101031.22;;;9.47;100.00
39265;BME280;42646;51.910;7.724;2023-02-19T04:44:03;101042.31;;;9.52;100.00
39265;BME280;42646;51.910;7.724;2023-02-19T04:46:31;101037.63;;;9.45;100.00
39265;BME280;42646;51.910;7.724;2023-02-19T04:48:59;101045.59;;;9.45;100.00
39265;BME280;42646;51.910;7.724;2023-02-19T04:51:27;101046.56;;;9.44;100.00
39265;BME280;42646;51.910;7.724;2023-02-19T04:53:55;101047.28;;;9.46;100.00
39265;BME280;42646;51.910;7.724;2023-02-19T04:56:22;101051.03;;;9.43;100.00
39265;BME280;42646;51.910;7.724;2023-02-19T04:58:51;101044.84;;;9.43;100.00
39265;BME280;42646;51.910;7.724;2023-02-19T05:01:20;101057.56;;;9.39;100.00
39265;BME280;42646;51.910;7.724;2023-02-19T05:03:48;101067.47;;;9.37;100.00
39265;BME280;42646;51.910;7.724;2023-02-19T05:06:17;101065.66;;;9.38;100.00
39265;BME280;42646;51.910;7.724;2023-02-19T05:08:45;101069.25;;;9.36;100.00
39265;BME280;42646;51.910;7.724;2023-02-19T05:11:13;101065.16;;;9.32;100.00
39265;BME280;42646;51.910;7.724;2023-02-19T05:13:42;101068.78;;;9.31;100.00
39265;BME280;42646;51.910;7.724;2023-02-19T05:16:13;101081.44;;;9.28;100.00
39265;BME280;42646;51.910;7.724;2023-02-19T05:18:43;101092.19;;;9.26;100.00
39265;BME280;42646;51.910;7.724;2023-02-19T05:21:12;101088.78;;;9.24;100.00
39265;BME280;42646;51.910;7.724;2023-02-19T05:23:39;101094.00;;;9.26;100.00
39265;BME280;42646;51.910;7.724;2023-02-19T05:26:12;101103.28;;;9.20;100.00
39265;BME280;42646;51.910;7.724;2023-02-19T05:28:43;101101.22;;;9.24;100.00
39265;BME280;42646;51.910;7.724;2023-02-19T05:31:13;101099.41;;;9.24;100.00
39265;BME280;42646;51.910;7.724;2023-02-19T05:33:41;101101.22;;;9.24;100.00
39265;BME280;42646;51.910;7.724;2023-02-19T05:36:11;101106.31;;;9.27;100.00
39265;BME280;42646;51.910;7.724;2023-02-19T05:38:40;101109.94;;;9.26;100.00
39265;BME280;42646;51.910;7.724;2023-02-19T05:41:09;101116.78;;;9.28;100.00
39265;BME280;42646;51.910;7.724;2023-02-19T05:43:41;101119.31;;;9.30;100.00
39265;BME280;42646;51.910;7.724;2023-02-19T05:46:10;101123.19;;;9.26;100.00
39265;BME280;42646;51.910;7.724;2023-02-19T05:48:40;101126.91;;;9.23;100.00
39265;BME280;42646;51.910;7.724;2023-02-19T05:51:10;101128.84;;;9.21;100.00
39265;BME280;42646;51.910;7.724;2023-02-19T05:54:03;101132.69;;;9.17;100.00
39265;BME280;42646;51.910;7.724;2023-02-19T05:56:32;101131.63;;;9.20;100.00
39265;BME280;42646;51.910;7.724;2023-02-19T05:59:06;101130.88;;;9.18;100.00
39265;BME280;42646;51.910;7.724;2023-02-19T06:01:35;101131.72;;;9.18;100.00
39265;BME280;42646;51.910;7.724;2023-02-19T06:04:04;101132.81;;;9.16;100.00
39265;BME280;42646;51.910;7.724;2023-02-19T06:06:32;101142.72;;;9.14;100.00
39265;BME280;42646;51.910;7.724;2023-02-19T06:09:27;101143.44;;;9.16;100.00
39265;BME280;42646;51.910;7.724;2023-02-19T06:11:59;101139.81;;;9.17;100.00
39265;BME280;42646;51.910;7.724;2023-02-19T06:14:27;101150.44;;;9.17;100.00
39265;BME280;42646;51.910;7.724;2023-02-19T06:16:58;101152.03;;;9.19;100.00
39265;BME280;42646;51.910;7.724;2023-02-19T06:19:32;101150.31;;;9.18;100.00
39265;BME280;42646;51.910;7.724;2023-02-19T06:22:00;101155.75;;;9.17;100.00
39265;BME280;42646;51.910;7.724;2023-02-19T06:24:30;101154.91;;;9.16;100.00
39265;BME280;42646;51.910;7.724;2023-02-19T06:26:58;101160.84;;;9.20;100.00
39265;BME280;42646;51.910;7.724;2023-02-19T06:29:26;101160.00;;;9.19;100.00
39265;BME280;42646;51.910;7.724;2023-02-19T06:31:54;101160.84;;;9.20;100.00
39265;BME280;42646;51.910;7.724;2023-02-19T06:34:23;101168.19;;;9.16;100.00
39265;BME280;42646;51.910;7.724;2023-02-19T06:36:52;101168.91;;;9.18;100.00
39265;BME280;42646;51.910;7.724;2023-02-19T06:39:21;101171.47;;;9.20;100.00
39265;BME280;42646;51.910;7.724;2023-02-19T06:41:48;101177.69;;;9.19;100.00
39265;BME280;42646;51.910;7.724;2023-02-19T06:44:18;101184.72;;;9.20;100.00
39265;BME280;42646;51.910;7.724;2023-02-19T06:46:45;101186.53;;;9.19;100.00
39265;BME280;42646;51.910;7.724;2023-02-19T06:49:13;101193.25;;;9.12;100.00
39265;BME280;42646;51.910;7.724;2023-02-19T06:51:46;101199.66;;;9.09;100.00
39265;BME280;42646;51.910;7.724;2023-02-19T06:54:21;101205.81;;;9.10;100.00
39265;BME280;42646;51.910;7.724;2023-02-19T06:56:51;101217.59;;;9.06;100.00
39265;BME280;42646;51.910;7.724;2023-02-19T06:59:20;101223.03;;;9.04;100.00
39265;BME280;42646;51.910;7.724;2023-02-19T07:01:47;101231.25;;;9.01;100.00
39265;BME280;42646;51.910;7.724;2023-02-19T07:04:15;101223.28;;;9.01;100.00
39265;BME280;42646;51.910;7.724;2023-02-19T07:06:44;101234.94;;;8.99;100.00
39265;BME280;42646;51.910;7.724;2023-02-19T07:09:12;101241.94;;;9.00;100.00
39265;BME280;42646;51.910;7.724;2023-02-19T07:12:07;101254.03;;;9.04;100.00
39265;BME280;42646;51.910;7.724;2023-02-19T07:14:38;101249.44;;;9.06;100.00
39265;BME280;42646;51.910;7.724;2023-02-19T07:17:10;101254.50;;;8.98;100.00
39265;BME280;42646;51.910;7.724;2023-02-19T07:19:37;101262.31;;;8.99;100.00
39265;BME280;42646;51.910;7.724;2023-02-19T07:22:06;101263.28;;;8.98;100.00
39265;BME280;42646;51.910;7.724;2023-02-19T07:24:36;101262.31;;;8.99;100.00
39265;BME280;42646;51.910;7.724;2023-02-19T07:27:04;101263.19;;;9.00;100.00
39265;BME280;42646;51.910;7.724;2023-02-19T07:29:33;101273.06;;;8.98;100.00
39265;BME280;42646;51.910;7.724;2023-02-19T07:32:01;101271.47;;;8.95;100.00
39265;BME280;42646;51.910;7.724;2023-02-19T07:34:29;101276.69;;;8.97;100.00
39265;BME280;42646;51.910;7.724;2023-02-19T07:36:57;101283.88;;;8.95;100.00
39265;BME280;42646;51.910;7.724;2023-02-19T07:39:29;101289.00;;;8.98;100.00
39265;BME280;42646;51.910;7.724;2023-02-19T07:41:56;101297.06;;;8.96;100.00
39265;BME280;42646;51.910;7.724;2023-02-19T07:44:32;101298.88;;;8.96;100.00
39265;BME280;42646;51.910;7.724;2023-02-19T07:47:00;101301.53;;;8.96;100.00
39265;BME280;42646;51.910;7.724;2023-02-19T07:49:27;101301.41;;;8.97;100.00
39265;BME280;42646;51.910;7.724;2023-02-19T07:52:00;101304.06;;;8.97;100.00
39265;BME280;42646;51.910;7.724;2023-02-19T07:54:33;101306.72;;;8.97;100.00
39265;BME280;42646;51.910;7.724;2023-02-19T07:57:00;101318.31;;;8.96;100.00
39265;BME280;42646;51.910;7.724;2023-02-19T07:59:33;101313.09;;;8.95;100.00
39265;BME280;42646;51.910;7.724;2023-02-19T08:02:01;101316.59;;;8.95;100.00
39265;BME280;42646;51.910;7.724;2023-02-19T08:05:01;101330.59;;;8.97;100.00
39265;BME280;42646;51.910;7.724;2023-02-19T08:07:30;101343.03;;;8.97;100.00
39265;BME280;42646;51.910;7.724;2023-02-19T08:09:59;101343.56;;;8.89;100.00
39265;BME280;42646;51.910;7.724;2023-02-19T08:12:45;101358.75;;;8.87;100.00
39265;BME280;42646;51.910;7.724;2023-02-19T08:15:41;101370.66;;;8.81;100.00
39265;BME280;42646;51.910;7.724;2023-02-19T08:18:10;101372.34;;;8.82;100.00
39265;BME280;42646;51.910;7.724;2023-02-19T08:20:38;101371.72;;;8.79;100.00
39265;BME280;42646;51.910;7.724;2023-02-19T08:23:07;101378.63;;;8.69;100.00
39265;BME280;42646;51.910;7.724;2023-02-19T08:25:36;101381.41;;;8.54;100.00
39265;BME280;42646;51.910;7.724;2023-02-19T08:28:06;101383.75;;;8.46;100.00
39265;BME280;42646;51.910;7.724;2023-02-19T08:30:35;101383.72;;;8.34;100.00
39265;BME280;42646;51.910;7.724;2023-02-19T08:33:06;101389.44;;;8.27;100.00
39265;BME280;42646;51.910;7.724;2023-02-19T08:35:35;101390.59;;;8.23;100.00
39265;BME280;42646;51.910;7.724;2023-02-19T08:38:05;101399.81;;;8.18;100.00
39265;BME280;42646;51.910;7.724;2023-02-19T08:40:33;101400.88;;;8.15;100.00
39265;BME280;42646;51.910;7.724;2023-02-19T08:43:03;101409.91;;;8.13;100.00
39265;BME280;42646;51.910;7.724;2023-02-19T08:45:31;101411.06;;;8.09;100.00
39265;BME280;42646;51.910;7.724;2023-02-19T08:47:59;101414.84;;;8.04;100.00
39265;BME280;42646;51.910;7.724;2023-02-19T08:50:30;101417.81;;;8.00;100.00
39265;BME280;42646;51.910;7.724;2023-02-19T08:52:59;101412.84;;;7.95;100.00
39265;BME280;42646;51.910;7.724;2023-02-19T08:55:27;101427.25;;;7.91;100.00
39265;BME280;42646;51.910;7.724;2023-02-19T08:57:56;101432.72;;;7.88;100.00
39265;BME280;42646;51.910;7.724;2023-02-19T09:00:25;101437.41;;;7.85;100.00
39265;BME280;42646;51.910;7.724;2023-02-19T09:02:56;101452.00;;;7.78;100.00
39265;BME280;42646;51.910;7.724;2023-02-19T09:05:24;101456.53;;;7.75;100.00
39265;BME280;42646;51.910;7.724;2023-02-19T09:07:53;101454.84;;;7.74;100.00
39265;BME280;42646;51.910;7.724;2023-02-19T09:10:20;101462.03;;;7.72;100.00
39265;BME280;42646;51.910;7.724;2023-02-19T09:12:52;101455.25;;;7.68;100.00
39265;BME280;42646;51.910;7.724;2023-02-19T09:15:20;101474.84;;;7.66;100.00
39265;BME280;42646;51.910;7.724;2023-02-19T09:17:50;101476.63;;;7.65;100.00
39265;BME280;42646;51.910;7.724;2023-02-19T09:20:18;101483.81;;;7.63;100.00
39265;BME280;42646;51.910;7.724;2023-02-19T09:22:46;101486.56;;;7.62;100.00
39265;BME280;42646;51.910;7.724;2023-02-19T09:25:16;101491.69;;;7.50;100.00
39265;BME280;42646;51.910;7.724;2023-02-19T09:27:44;101498.34;;;7.43;100.00
39265;BME280;42646;51.910;7.724;2023-02-19T09:30:15;101501.16;;;7.40;100.00
39265;BME280;42646;51.910;7.724;2023-02-19T09:32:44;101510.25;;;7.36;100.00
39265;BME280;42646;51.910;7.724;2023-02-19T09:35:13;101512.06;;;7.36;100.00
39265;BME280;42646;51.910;7.724;2023-02-19T09:37:42;101517.34;;;7.36;100.00
39265;BME280;42646;51.910;7.724;2023-02-19T09:40:10;101520.00;;;7.36;100.00
39265;BME280;42646;51.910;7.724;2023-02-19T09:42:40;101524.13;;;7.40;100.00
39265;BME280;42646;51.910;7.724;2023-02-19T09:45:35;101523.41;;;7.38;100.00
39265;BME280;42646;51.910;7.724;2023-02-19T09:48:04;101529.63;;;7.37;100.00
39265;BME280;42646;51.910;7.724;2023-02-19T09:51:00;101545.31;;;7.40;100.00
39265;BME280;42646;51.910;7.724;2023-02-19T09:53:36;101555.06;;;7.39;100.00
39265;BME280;42646;51.910;7.724;2023-02-19T09:56:07;101551.56;;;7.39;100.00
39265;BME280;42646;51.910;7.724;2023-02-19T09:58:45;101568.41;;;7.38;100.00
39265;BME280;42646;51.910;7.724;2023-02-19T10:01:14;101570.94;;;7.39;100.00
39265;BME280;42646;51.910;7.724;2023-02-19T10:03:45;101578.03;;;7.39;100.00
39265;BME280;42646;51.910;7.724;2023-02-19T10:06:17;101586.94;;;7.38;100.00
39265;BME280;42646;51.910;7.724;2023-02-19T10:08:50;101592.22;;;7.38;100.00
39265;BME280;42646;51.910;7.724;2023-02-19T10:11:18;101604.34;;;7.42;100.00
39265;BME280;42646;51.910;7.724;2023-02-19T10:13:53;101606.03;;;7.43;100.00
39265;BME280;42646;51.910;7.724;2023-02-19T10:16:50;101620.13;;;7.43;100.00
39265;BME280;42646;51.910;7.724;2023-02-19T10:19:18;101618.41;;;7.42;100.00
39265;BME280;42646;51.910;7.724;2023-02-19T10:21:46;101619.38;;;7.41;100.00
39265;BME280;42646;51.910;7.724;2023-02-19T10:24:19;101623.72;;;7.42;100.00
39265;BME280;42646;51.910;7.724;2023-02-19T10:26:49;101622.00;;;7.41;100.00
39265;BME280;42646;51.910;7.724;2023-02-19T10:29:22;101627.31;;;7.41;100.00
39265;BME280;42646;51.910;7.724;2023-02-19T10:32:10;101634.31;;;7.42;100.00
39265;BME280;42646;51.910;7.724;2023-02-19T10:34:38;101643.00;;;7.44;100.00
39265;BME280;42646;51.910;7.724;2023-02-19T10:37:10;101642.31;;;7.41;100.00
39265;BME280;42646;51.910;7.724;2023-02-19T10:39:42;101644.13;;;7.40;100.00
39265;BME280;42646;51.910;7.724;2023-02-19T10:42:20;101643.00;;;7.44;100.00
39265;BME280;42646;51.910;7.724;2023-02-19T10:45:20;101653.47;;;7.46;100.00
39265;BME280;42646;51.910;7.724;2023-02-19T10:47:51;101657.06;;;7.45;100.00
39265;BME280;42646;51.910;7.724;2023-02-19T10:50:25;101650.81;;;7.46;100.00
39265;BME280;42646;51.910;7.724;2023-02-19T10:53:21;101658.50;;;7.50;100.00
39265;BME280;42646;51.910;7.724;2023-02-19T10:56:05;101664.47;;;7.54;100.00
39265;BME280;42646;51.910;7.724;2023-02-19T10:58:37;101667.00;;;7.56;100.00
39265;BME280;42646;51.910;7.724;2023-02-19T11:01:12;101665.31;;;7.55;100.00
39265;BME280;42646;51.910;7.724;2023-02-19T11:03:41;101672.31;;;7.56;100.00
39265;BME280;42646;51.910;7.724;2023-02-19T11:06:10;101663.63;;;7.54;100.00
39265;BME280;42646;51.910;7.724;2023-02-19T11:08:48;101667.19;;;7.53;100.00
39265;BME280;42646;51.910;7.724;2023-02-19T11:11:31;101667.00;;;7.56;100.00
39265;BME280;42646;51.910;7.724;2023-02-19T11:14:03;101675.72;;;7.58;100.00
39265;BME280;42646;51.910;7.724;2023-02-19T11:16:45;101673.84;;;7.60;100.00
39265;BME280;42646;51.910;7.724;2023-02-19T11:19:22;101676.66;;;7.57;100.00
39265;BME280;42646;51.910;7.724;2023-02-19T11:21:51;101678.34;;;7.58;100.00
39265;BME280;42646;51.910;7.724;2023-02-19T11:24:25;101682.69;;;7.59;100.00
39265;BME280;42646;51.910;7.724;2023-02-19T11:26:56;101689.63;;;7.61;100.00
39265;BME280;42646;51.910;7.724;2023-02-19T11:29:24;101685.06;;;7.63;100.00
39265;BME280;42646;51.910;7.724;2023-02-19T11:31:55;101683.38;;;7.62;100.00
39265;BME280;42646;51.910;7.724;2023-02-19T11:34:26;101675.44;;;7.62;100.00
39265;BME280;42646;51.910;7.724;2023-02-19T11:37:11;101669.19;;;7.63;100.00
39265;BME280;42646;51.910;7.724;2023-02-19T11:39:43;101673.34;;;7.67;100.00
39265;BME280;42646;51.910;7.724;2023-02-19T11:42:30;101673.16;;;7.70;100.00
39265;BME280;42646;51.910;7.724;2023-02-19T11:48:26;101675.63;;;7.73;100.00
39265;BME280;42646;51.910;7.724;2023-02-19T11:51:04;101672.69;;;7.78;100.00
39265;BME280;42646;51.910;7.724;2023-02-19T11:53:44;101662.75;;;7.82;100.00
39265;BME280;42646;51.910;7.724;2023-02-19T11:56:18;101661.63;;;7.86;100.00
39265;BME280;42646;51.910;7.724;2023-02-19T11:58:58;101658.78;;;7.89;100.00
39265;BME280;42646;51.910;7.724;2023-02-19T12:01:42;101664.94;;;7.89;100.00
39265;BME280;42646;51.910;7.724;2023-02-19T12:04:59;101668.31;;;7.91;100.00
39265;BME280;42646;51.910;7.724;2023-02-19T12:07:53;101671.53;;;7.96;100.00
39265;BME280;42646;51.910;7.724;2023-02-19T12:10:28;101672.09;;;8.01;100.00
39265;BME280;42646;51.910;7.724;2023-02-19T12:13:10;101670.78;;;8.09;100.00
39265;BME280;42646;51.910;7.724;2023-02-19T12:15:52;101670.38;;;8.15;100.00
39265;BME280;42646;51.910;7.724;2023-02-19T12:21:34;101681.72;;;8.17;100.00
39265;BME280;42646;51.910;7.724;2023-02-19T12:24:21;101680.88;;;8.16;100.00
39265;BME280;42646;51.910;7.724;2023-02-19T12:27:07;101684.28;;;8.18;100.00
39265;BME280;42646;51.910;7.724;2023-02-19T12:29:50;101690.97;;;8.24;100.00
39265;BME280;42646;51.910;7.724;2023-02-19T12:32:42;101699.59;;;8.27;100.00
39265;BME280;42646;51.910;7.724;2023-02-19T12:35:25;101696.09;;;8.27;100.00
39265;BME280;42646;51.910;7.724;2023-02-19T12:38:00;101690.78;;;8.27;100.00
39265;BME280;42646;51.910;7.724;2023-02-19T12:40:42;101695.16;;;8.28;100.00
39265;BME280;42646;51.910;7.724;2023-02-19T12:43:17;101696.84;;;8.29;100.00
39265;BME280;42646;51.910;7.724;2023-02-19T12:45:51;101701.13;;;8.32;100.00
39265;BME280;42646;51.910;7.724;2023-02-19T12:48:27;101700.16;;;8.33;100.00
39265;BME280;42646;51.910;7.724;2023-02-19T12:50:58;101702.81;;;8.33;100.00
39265;BME280;42646;51.910;7.724;2023-02-19T12:53:33;101712.47;;;8.34;100.00
39265;BME280;42646;51.910;7.724;2023-02-19T12:56:09;101722.13;;;8.35;100.00
39265;BME280;42646;51.910;7.724;2023-02-19T12:58:43;101717.63;;;8.37;100.00
39265;BME280;42646;51.910;7.724;2023-02-19T13:01:14;101722.91;;;8.37;100.00
39265;BME280;42646;51.910;7.724;2023-02-19T13:03:48;101710.50;;;8.37;100.00
39265;BME280;42646;51.910;7.724;2023-02-19T13:06:31;101711.25;;;8.39;100.00
39265;BME280;42646;51.910;7.724;2023-02-19T13:09:08;101717.31;;;8.41;100.00
39265;BME280;42646;51.910;7.724;2023-02-19T13:11:42;101718.25;;;8.40;100.00
39265;BME280;42646;51.910;7.724;2023-02-19T13:14:18;101721.97;;;8.38;100.00
39265;BME280;42646;51.910;7.724;2023-02-19T13:16:51;101715.88;;;8.36;100.00
39265;BME280;42646;51.910;7.724;2023-02-19T13:19:22;101717.75;;;8.34;100.00
39265;BME280;42646;51.910;7.724;2023-02-19T13:21:56;101722.31;;;8.32;100.00
39265;BME280;42646;51.910;7.724;2023-02-19T13:24:45;101721.09;;;8.23;100.00
39265;BME280;42646;51.910;7.724;2023-02-19T13:27:33;101728.47;;;8.18;100.00
39265;BME280;42646;51.910;7.724;2023-02-19T13:30:14;101722.72;;;8.11;100.00
39265;BME280;42646;51.910;7.724;2023-02-19T13:32:54;101724.72;;;8.08;100.00
39265;BME280;42646;51.910;7.724;2023-02-19T13:35:49;101726.41;;;8.09;100.00